sensor_id;sensor_type;location;lat;lon;timestamp;pressure;altitude;pressure_sealevel;temperature;humidity
36932;BME280;22847;42.654;23.370;2023-01-10T00:01:21;93913.13;;;4.77;77.63
36932;BME280;22847;42.654;23.370;2023-01-10T00:03:46;93701.75;;;3.83;77.92
36932;BME280;22847;42.654;23.370;2023-01-10T00:06:12;93830.38;;;4.48;78.86
36932;BME280;22847;42.654;23.370;2023-01-10T00:08:37;93910.63;;;4.66;80.98
36932;BME280;22847;42.654;23.370;2023-01-10T00:11:03;93670.75;;;3.23;80.52
36932;BME280;22847;42.654;23.370;2023-01-10T00:13:52;93777.72;;;4.00;81.00
36932;BME280;22847;42.654;23.370;2023-01-10T00:16:18;93707.72;;;3.84;79.97
36932;BME280;22847;42.654;23.370;2023-01-10T00:18:43;93921.19;;;5.24;78.52
36932;BME280;22847;42.654;23.370;2023-01-10T00:21:09;93904.63;;;5.36;77.45
36932;BME280;22847;42.654;23.370;2023-01-10T00:23:34;93683.66;;;4.44;75.60
36932;BME280;22847;42.654;23.370;2023-01-10T00:26:00;93939.50;;;5.51;76.78
36932;BME280;22847;42.654;23.370;2023-01-10T00:28:25;93749.91;;;4.83;75.64
36932;BME280;22847;42.654;23.370;2023-01-10T00:30:53;93717.63;;;4.49;75.16
36932;BME280;22847;42.654;23.370;2023-01-10T00:33:19;93905.22;;;5.39;76.29
36932;BME280;22847;42.654;23.370;2023-01-10T00:35:45;93909.56;;;5.39;77.31
36932;BME280;22847;42.654;23.370;2023-01-10T00:38:11;93913.75;;;5.30;77.59
36932;BME280;22847;42.654;23.370;2023-01-10T00:40:36;93891.66;;;5.76;75.77
36932;BME280;22847;42.654;23.370;2023-01-10T00:43:01;93846.31;;;5.53;75.38
36932;BME280;22847;42.654;23.370;2023-01-10T00:45:46;93866.59;;;5.57;75.40
36932;BME280;22847;42.654;23.370;2023-01-10T00:48:15;93877.56;;;5.90;75.26
36932;BME280;22847;42.654;23.370;2023-01-10T00:50:41;93874.53;;;6.04;74.99
36932;BME280;22847;42.654;23.370;2023-01-10T00:53:06;93899.28;;;5.77;75.51
36932;BME280;22847;42.654;23.370;2023-01-10T00:55:32;93758.50;;;4.93;75.82
36932;BME280;22847;42.654;23.370;2023-01-10T00:57:59;93857.31;;;5.45;76.56
36932;BME280;22847;42.654;23.370;2023-01-10T01:00:25;93658.06;;;4.22;76.59
36932;BME280;22847;42.654;23.370;2023-01-10T01:02:50;93827.69;;;5.49;76.83
36932;BME280;22847;42.654;23.370;2023-01-10T01:05:16;93760.72;;;5.36;75.55
36932;BME280;22847;42.654;23.370;2023-01-10T01:07:42;93827.09;;;5.46;76.29
36932;BME280;22847;42.654;23.370;2023-01-10T01:10:08;93641.81;;;4.40;76.11
36932;BME280;22847;42.654;23.370;2023-01-10T01:12:55;93884.50;;;5.99;75.58
36932;BME280;22847;42.654;23.370;2023-01-10T01:15:22;93737.13;;;4.72;76.52
36932;BME280;22847;42.654;23.370;2023-01-10T01:17:48;93724.78;;;4.85;76.05
36932;BME280;22847;42.654;23.370;2023-01-10T01:20:13;93809.56;;;5.78;75.78
36932;BME280;22847;42.654;23.370;2023-01-10T01:22:39;93819.13;;;5.58;76.73
36932;BME280;22847;42.654;23.370;2023-01-10T01:25:06;93878.88;;;5.84;76.34
36932;BME280;22847;42.654;23.370;2023-01-10T01:27:31;93830.13;;;5.60;75.60
36932;BME280;22847;42.654;23.370;2023-01-10T01:29:59;93829.72;;;5.74;75.71
36932;BME280;22847;42.654;23.370;2023-01-10T01:32:25;93661.13;;;4.56;76.09
36932;BME280;22847;42.654;23.370;2023-01-10T01:34:50;93882.84;;;5.88;75.03
36932;BME280;22847;42.654;23.370;2023-01-10T01:37:16;93890.06;;;6.04;74.45
36932;BME280;22847;42.654;23.370;2023-01-10T01:39:44;93840.63;;;6.16;73.95
36932;BME280;22847;42.654;23.370;2023-01-10T01:42:24;93866.03;;;6.40;74.02
36932;BME280;22847;42.654;23.370;2023-01-10T01:47:41;93772.44;;;5.89;73.30
36932;BME280;22847;42.654;23.370;2023-01-10T01:50:24;93817.97;;;6.38;72.39
36932;BME280;22847;42.654;23.370;2023-01-10T01:52:54;93839.06;;;6.52;71.80
36932;BME280;22847;42.654;23.370;2023-01-10T01:55:21;93850.03;;;6.73;71.41
36932;BME280;22847;42.654;23.370;2023-01-10T01:57:50;93804.69;;;6.50;71.53
36932;BME280;22847;42.654;23.370;2023-01-10T02:00:17;93643.03;;;5.42;72.26
36932;BME280;22847;42.654;23.370;2023-01-10T02:02:49;93822.72;;;6.42;72.99
36932;BME280;22847;42.654;23.370;2023-01-10T02:05:16;93751.06;;;6.33;72.06
36932;BME280;22847;42.654;23.370;2023-01-10T02:07:45;93828.41;;;6.92;71.44
36932;BME280;22847;42.654;23.370;2023-01-10T02:12:54;93779.59;;;6.88;70.79
36932;BME280;22847;42.654;23.370;2023-01-10T02:15:21;93794.84;;;7.18;70.49
36932;BME280;22847;42.654;23.370;2023-01-10T02:17:48;93783.28;;;7.30;69.87
36932;BME280;22847;42.654;23.370;2023-01-10T02:20:17;93779.31;;;7.36;69.28
36932;BME280;22847;42.654;23.370;2023-01-10T02:33:49;93744.78;;;7.35;68.54
36932;BME280;22847;42.654;23.370;2023-01-10T02:39:00;93780.81;;;7.74;67.71
36932;BME280;22847;42.654;23.370;2023-01-10T02:43:59;93810.59;;;7.52;68.12
36932;BME280;22847;42.654;23.370;2023-01-10T02:46:29;93611.25;;;6.43;67.74
36932;BME280;22847;42.654;23.370;2023-01-10T02:48:56;93792.34;;;7.61;68.49
36932;BME280;22847;42.654;23.370;2023-01-10T02:51:23;93796.00;;;7.69;68.08
36932;BME280;22847;42.654;23.370;2023-01-10T03:07:44;93793.81;;;6.47;71.78
36932;BME280;22847;42.654;23.370;2023-01-10T03:10:20;93831.94;;;6.54;72.50
36932;BME280;22847;42.654;23.370;2023-01-10T03:12:57;93829.47;;;6.62;71.96
36932;BME280;22847;42.654;23.370;2023-01-10T03:15:28;93803.94;;;6.31;73.57
36932;BME280;22847;42.654;23.370;2023-01-10T03:17:58;93810.41;;;6.54;72.43
36932;BME280;22847;42.654;23.370;2023-01-10T03:20:27;93644.09;;;5.59;71.95
36932;BME280;22847;42.654;23.370;2023-01-10T03:22:54;93825.00;;;5.99;73.67
36932;BME280;22847;42.654;23.370;2023-01-10T03:25:22;93837.31;;;6.34;73.43
36932;BME280;22847;42.654;23.370;2023-01-10T03:28:12;93815.03;;;6.60;72.60
36932;BME280;22847;42.654;23.370;2023-01-10T03:31:03;93817.69;;;6.78;71.70
36932;BME280;22847;42.654;23.370;2023-01-10T03:33:31;93631.97;;;5.59;71.23
36932;BME280;22847;42.654;23.370;2023-01-10T03:38:41;93694.94;;;6.34;70.42
36932;BME280;22847;42.654;23.370;2023-01-10T03:41:35;93824.41;;;7.25;69.96
36932;BME280;22847;42.654;23.370;2023-01-10T03:47:07;93817.91;;;7.39;68.51
36932;BME280;22847;42.654;23.370;2023-01-10T03:49:36;93724.50;;;6.86;68.31
36932;BME280;22847;42.654;23.370;2023-01-10T03:52:03;93809.19;;;7.57;67.83
36932;BME280;22847;42.654;23.370;2023-01-10T03:54:29;93809.63;;;7.53;67.75
36932;BME280;22847;42.654;23.370;2023-01-10T03:56:55;93788.94;;;7.43;67.64
36932;BME280;22847;42.654;23.370;2023-01-10T03:59:25;93826.44;;;7.49;68.35
36932;BME280;22847;42.654;23.370;2023-01-10T04:01:51;93779.53;;;7.25;68.80
36932;BME280;22847;42.654;23.370;2023-01-10T04:04:17;93779.66;;;7.23;69.49
36932;BME280;22847;42.654;23.370;2023-01-10T04:06:43;93712.25;;;6.88;69.58
36932;BME280;22847;42.654;23.370;2023-01-10T04:09:09;93705.34;;;6.51;70.89
36932;BME280;22847;42.654;23.370;2023-01-10T04:11:34;93730.72;;;7.02;70.33
36932;BME280;22847;42.654;23.370;2023-01-10T04:14:00;93697.28;;;6.82;69.87
36932;BME280;22847;42.654;23.370;2023-01-10T04:16:26;93538.47;;;6.01;69.57
36932;BME280;22847;42.654;23.370;2023-01-10T04:18:51;93701.00;;;6.97;69.55
36932;BME280;22847;42.654;23.370;2023-01-10T04:21:16;93751.47;;;7.20;69.57
36932;BME280;22847;42.654;23.370;2023-01-10T04:23:42;93708.34;;;7.01;69.59
36932;BME280;22847;42.654;23.370;2023-01-10T04:26:07;93724.38;;;6.87;69.81
36932;BME280;22847;42.654;23.370;2023-01-10T04:28:33;93738.38;;;6.94;69.44
36932;BME280;22847;42.654;23.370;2023-01-10T04:30:58;93795.38;;;7.22;69.50
36932;BME280;22847;42.654;23.370;2023-01-10T04:33:23;93628.84;;;6.12;69.37
36932;BME280;22847;42.654;23.370;2023-01-10T04:35:50;93786.44;;;7.34;68.78
36932;BME280;22847;42.654;23.370;2023-01-10T04:38:16;93764.13;;;7.23;68.41
36932;BME280;22847;42.654;23.370;2023-01-10T04:40:42;93649.16;;;6.34;68.41
36932;BME280;22847;42.654;23.370;2023-01-10T04:43:08;93802.63;;;7.18;68.40
36932;BME280;22847;42.654;23.370;2023-01-10T04:45:33;93818.84;;;7.47;68.05
36932;BME280;22847;42.654;23.370;2023-01-10T04:47:59;93627.34;;;6.37;67.68
36932;BME280;22847;42.654;23.370;2023-01-10T04:50:25;93765.47;;;7.00;68.59
36932;BME280;22847;42.654;23.370;2023-01-10T04:52:51;93805.91;;;7.20;69.09
36932;BME280;22847;42.654;23.370;2023-01-10T04:55:16;93803.84;;;6.59;71.10
36932;BME280;22847;42.654;23.370;2023-01-10T04:57:42;93741.88;;;6.11;71.68
36932;BME280;22847;42.654;23.370;2023-01-10T05:00:08;93801.63;;;6.74;70.80
36932;BME280;22847;42.654;23.370;2023-01-10T05:02:34;93780.06;;;6.73;70.06
36932;BME280;22847;42.654;23.370;2023-01-10T05:04:59;93774.16;;;6.81;70.47
36932;BME280;22847;42.654;23.370;2023-01-10T05:07:25;93773.56;;;6.69;70.46
36932;BME280;22847;42.654;23.370;2023-01-10T05:09:50;93787.75;;;6.65;71.17
36932;BME280;22847;42.654;23.370;2023-01-10T05:12:16;93790.63;;;6.90;70.48
36932;BME280;22847;42.654;23.370;2023-01-10T05:14:41;93718.19;;;6.16;72.29
36932;BME280;22847;42.654;23.370;2023-01-10T05:17:06;93740.28;;;6.01;73.68
36932;BME280;22847;42.654;23.370;2023-01-10T05:19:32;93753.72;;;6.14;73.66
36932;BME280;22847;42.654;23.370;2023-01-10T05:21:57;93540.53;;;5.14;72.61
36932;BME280;22847;42.654;23.370;2023-01-10T05:24:22;93751.56;;;6.46;72.69
36932;BME280;22847;42.654;23.370;2023-01-10T05:26:48;93695.06;;;5.85;73.70
36932;BME280;22847;42.654;23.370;2023-01-10T05:29:13;93564.91;;;5.02;73.63
36932;BME280;22847;42.654;23.370;2023-01-10T05:31:39;93704.41;;;6.15;72.82
36932;BME280;22847;42.654;23.370;2023-01-10T05:34:05;93755.44;;;6.69;71.72
36932;BME280;22847;42.654;23.370;2023-01-10T05:36:30;93609.47;;;5.89;71.30
36932;BME280;22847;42.654;23.370;2023-01-10T05:38:56;93776.72;;;6.63;71.79
36932;BME280;22847;42.654;23.370;2023-01-10T05:41:22;93777.81;;;6.14;73.61
36932;BME280;22847;42.654;23.370;2023-01-10T05:43:48;93585.69;;;5.19;72.98
36932;BME280;22847;42.654;23.370;2023-01-10T05:46:13;93777.75;;;6.43;72.81
36932;BME280;22847;42.654;23.370;2023-01-10T05:48:39;93714.81;;;5.96;73.41
36932;BME280;22847;42.654;23.370;2023-01-10T05:51:05;93762.09;;;6.35;73.53
36932;BME280;22847;42.654;23.370;2023-01-10T05:53:30;93763.81;;;6.44;72.74
36932;BME280;22847;42.654;23.370;2023-01-10T05:55:58;93778.78;;;6.60;72.65
36932;BME280;22847;42.654;23.370;2023-01-10T05:58:24;93638.16;;;5.85;72.33
36932;BME280;22847;42.654;23.370;2023-01-10T06:00:50;93796.03;;;6.69;72.49
36932;BME280;22847;42.654;23.370;2023-01-10T06:03:15;93725.13;;;6.52;71.82
36932;BME280;22847;42.654;23.370;2023-01-10T06:05:41;93774.75;;;7.02;70.66
36932;BME280;22847;42.654;23.370;2023-01-10T06:08:06;93708.22;;;6.21;71.92
36932;BME280;22847;42.654;23.370;2023-01-10T06:10:32;93773.88;;;6.57;71.68
36932;BME280;22847;42.654;23.370;2023-01-10T06:12:57;93639.56;;;5.80;71.90
36932;BME280;22847;42.654;23.370;2023-01-10T06:15:22;93787.41;;;6.78;71.80
36932;BME280;22847;42.654;23.370;2023-01-10T06:17:48;93811.00;;;6.38;73.14
36932;BME280;22847;42.654;23.370;2023-01-10T06:20:13;93773.66;;;6.41;72.90
36932;BME280;22847;42.654;23.370;2023-01-10T06:22:40;93802.69;;;6.71;71.84
36932;BME280;22847;42.654;23.370;2023-01-10T06:25:06;93770.50;;;6.84;71.54
36932;BME280;22847;42.654;23.370;2023-01-10T06:27:32;93780.91;;;7.01;71.06
36932;BME280;22847;42.654;23.370;2023-01-10T06:29:57;93777.13;;;7.13;70.74
36932;BME280;22847;42.654;23.370;2023-01-10T06:32:26;93750.38;;;6.68;71.13
36932;BME280;22847;42.654;23.370;2023-01-10T06:34:51;93612.34;;;5.76;72.16
36932;BME280;22847;42.654;23.370;2023-01-10T06:37:17;93774.03;;;6.83;72.02
36932;BME280;22847;42.654;23.370;2023-01-10T06:39:42;93779.59;;;6.88;71.87
36932;BME280;22847;42.654;23.370;2023-01-10T06:42:07;93607.56;;;5.44;73.40
36932;BME280;22847;42.654;23.370;2023-01-10T06:44:33;93571.44;;;5.06;75.02
36932;BME280;22847;42.654;23.370;2023-01-10T06:46:58;93773.97;;;6.28;75.55
36932;BME280;22847;42.654;23.370;2023-01-10T06:49:23;93758.91;;;6.04;76.31
36932;BME280;22847;42.654;23.370;2023-01-10T06:51:49;93760.25;;;6.18;77.29
36932;BME280;22847;42.654;23.370;2023-01-10T06:54:14;93770.13;;;6.42;77.60
36932;BME280;22847;42.654;23.370;2023-01-10T06:56:40;93767.19;;;6.17;79.14
36932;BME280;22847;42.654;23.370;2023-01-10T06:59:07;93582.53;;;5.45;77.66
36932;BME280;22847;42.654;23.370;2023-01-10T07:01:33;93689.69;;;7.77;76.82
36932;BME280;22847;42.654;23.370;2023-01-10T07:03:58;93662.00;;;6.71;76.32
36932;BME280;22847;42.654;23.370;2023-01-10T07:06:23;93765.72;;;7.06;77.37
36932;BME280;22847;42.654;23.370;2023-01-10T07:08:49;93764.69;;;7.17;76.81
36932;BME280;22847;42.654;23.370;2023-01-10T07:11:14;93770.38;;;7.03;78.00
36932;BME280;22847;42.654;23.370;2023-01-10T07:13:41;93768.16;;;7.08;77.50
36932;BME280;22847;42.654;23.370;2023-01-10T07:16:08;93756.94;;;6.90;79.10
36932;BME280;22847;42.654;23.370;2023-01-10T07:18:35;93552.47;;;5.34;79.95
36932;BME280;22847;42.654;23.370;2023-01-10T07:21:01;93757.22;;;6.22;82.49
36932;BME280;22847;42.654;23.370;2023-01-10T07:23:27;93712.09;;;5.78;83.88
36932;BME280;22847;42.654;23.370;2023-01-10T07:25:52;93709.13;;;5.73;83.89
36932;BME280;22847;42.654;23.370;2023-01-10T07:28:17;93723.91;;;6.10;83.23
36932;BME280;22847;42.654;23.370;2023-01-10T07:30:43;93748.91;;;5.63;84.93
36932;BME280;22847;42.654;23.370;2023-01-10T07:33:08;93739.09;;;5.47;85.99
36932;BME280;22847;42.654;23.370;2023-01-10T07:35:34;93739.22;;;5.74;85.38
36932;BME280;22847;42.654;23.370;2023-01-10T07:37:59;93721.03;;;6.13;82.77
36932;BME280;22847;42.654;23.370;2023-01-10T07:40:27;93722.97;;;6.48;81.20
36932;BME280;22847;42.654;23.370;2023-01-10T07:42:57;93711.38;;;6.05;82.85
36932;BME280;22847;42.654;23.370;2023-01-10T07:45:26;93720.56;;;6.27;82.03
36932;BME280;22847;42.654;23.370;2023-01-10T07:47:56;93734.59;;;6.34;82.37
36932;BME280;22847;42.654;23.370;2023-01-10T07:50:22;93734.78;;;6.13;84.69
36932;BME280;22847;42.654;23.370;2023-01-10T07:52:47;93685.13;;;6.00;84.13
36932;BME280;22847;42.654;23.370;2023-01-10T07:55:13;93710.13;;;6.19;83.99
36932;BME280;22847;42.654;23.370;2023-01-10T07:57:38;93738.56;;;6.28;84.16
36932;BME280;22847;42.654;23.370;2023-01-10T08:00:04;93756.72;;;6.09;84.37
36932;BME280;22847;42.654;23.370;2023-01-10T08:02:30;93687.63;;;5.63;85.84
36932;BME280;22847;42.654;23.370;2023-01-10T08:04:55;93500.97;;;4.67;85.86
36932;BME280;22847;42.654;23.370;2023-01-10T08:07:21;93738.22;;;6.04;85.55
36932;BME280;22847;42.654;23.370;2023-01-10T08:09:46;93720.66;;;6.08;86.01
36932;BME280;22847;42.654;23.370;2023-01-10T08:12:11;93714.59;;;6.17;85.41
36932;BME280;22847;42.654;23.370;2023-01-10T08:14:40;93736.69;;;6.21;86.19
36932;BME280;22847;42.654;23.370;2023-01-10T08:17:05;93489.84;;;4.47;87.24
36932;BME280;22847;42.654;23.370;2023-01-10T08:19:31;93731.53;;;6.11;87.49
36932;BME280;22847;42.654;23.370;2023-01-10T08:21:56;93766.91;;;6.30;86.59
36932;BME280;22847;42.654;23.370;2023-01-10T08:24:22;93690.06;;;5.94;87.30
36932;BME280;22847;42.654;23.370;2023-01-10T08:26:47;93691.13;;;5.81;87.30
36932;BME280;22847;42.654;23.370;2023-01-10T08:29:12;93699.59;;;5.93;88.91
36932;BME280;22847;42.654;23.370;2023-01-10T08:31:39;93657.44;;;6.10;87.53
36932;BME280;22847;42.654;23.370;2023-01-10T08:34:05;93618.44;;;5.94;86.56
36932;BME280;22847;42.654;23.370;2023-01-10T08:36:30;93705.81;;;6.64;85.26
36932;BME280;22847;42.654;23.370;2023-01-10T08:38:56;93493.00;;;5.44;84.36
36932;BME280;22847;42.654;23.370;2023-01-10T08:41:21;93711.69;;;6.39;86.55
36932;BME280;22847;42.654;23.370;2023-01-10T08:43:51;93691.91;;;6.93;84.84
36932;BME280;22847;42.654;23.370;2023-01-10T08:46:17;93703.69;;;6.23;88.39
36932;BME280;22847;42.654;23.370;2023-01-10T08:48:44;93707.75;;;5.89;91.34
36932;BME280;22847;42.654;23.370;2023-01-10T08:51:10;93669.91;;;5.78;89.17
36932;BME280;22847;42.654;23.370;2023-01-10T08:53:38;93680.50;;;6.31;87.79
36932;BME280;22847;42.654;23.370;2023-01-10T08:56:04;93587.16;;;6.15;83.92
36932;BME280;22847;42.654;23.370;2023-01-10T08:58:30;93505.31;;;5.87;84.21
36932;BME280;22847;42.654;23.370;2023-01-10T09:00:55;93498.69;;;5.74;84.10
36932;BME280;22847;42.654;23.370;2023-01-10T09:03:20;93675.47;;;6.84;85.84
36932;BME280;22847;42.654;23.370;2023-01-10T09:05:46;93609.31;;;6.62;85.46
36932;BME280;22847;42.654;23.370;2023-01-10T09:08:11;93677.63;;;6.07;89.53
36932;BME280;22847;42.654;23.370;2023-01-10T09:10:36;93661.94;;;6.08;90.27
36932;BME280;22847;42.654;23.370;2023-01-10T09:13:02;93565.53;;;5.69;89.83
36932;BME280;22847;42.654;23.370;2023-01-10T09:15:34;93636.91;;;6.54;88.10
36932;BME280;22847;42.654;23.370;2023-01-10T09:18:01;93663.84;;;7.06;86.58
36932;BME280;22847;42.654;23.370;2023-01-10T09:20:29;93674.41;;;7.12;85.20
36932;BME280;22847;42.654;23.370;2023-01-10T09:22:55;93660.19;;;7.16;84.55
36932;BME280;22847;42.654;23.370;2023-01-10T09:25:22;93682.56;;;7.35;83.21
36932;BME280;22847;42.654;23.370;2023-01-10T09:27:55;93670.88;;;6.51;86.99
36932;BME280;22847;42.654;23.370;2023-01-10T09:30:20;93648.88;;;7.00;86.06
36932;BME280;22847;42.654;23.370;2023-01-10T09:32:50;93650.78;;;7.33;84.67
36932;BME280;22847;42.654;23.370;2023-01-10T09:35:15;93602.72;;;7.21;83.47
36932;BME280;22847;42.654;23.370;2023-01-10T09:37:40;93498.38;;;6.76;82.76
36932;BME280;22847;42.654;23.370;2023-01-10T09:40:06;93637.97;;;7.57;81.86
36932;BME280;22847;42.654;23.370;2023-01-10T09:45:38;93543.00;;;7.31;80.97
36932;BME280;22847;42.654;23.370;2023-01-10T09:48:23;93614.34;;;7.86;80.98
36932;BME280;22847;42.654;23.370;2023-01-10T09:53:30;93603.47;;;7.83;81.72
36932;BME280;22847;42.654;23.370;2023-01-10T09:55:59;93462.69;;;7.13;81.86
36932;BME280;22847;42.654;23.370;2023-01-10T09:58:29;93608.72;;;7.99;82.32
36932;BME280;22847;42.654;23.370;2023-01-10T10:01:16;93599.84;;;8.10;82.03
36932;BME280;22847;42.654;23.370;2023-01-10T10:06:26;93611.94;;;8.27;80.18
36932;BME280;22847;42.654;23.370;2023-01-10T10:08:52;93553.56;;;7.97;80.45
36932;BME280;22847;42.654;23.370;2023-01-10T10:16:49;93606.75;;;8.27;80.63
36932;BME280;22847;42.654;23.370;2023-01-10T10:22:07;93600.22;;;7.89;80.76
36932;BME280;22847;42.654;23.370;2023-01-10T10:27:20;93607.88;;;7.90;80.40
36932;BME280;22847;42.654;23.370;2023-01-10T10:29:55;93377.78;;;6.47;80.45
36932;BME280;22847;42.654;23.370;2023-01-10T10:32:38;93619.38;;;7.62;82.64
36932;BME280;22847;42.654;23.370;2023-01-10T10:35:48;93580.53;;;8.04;80.58
36932;BME280;22847;42.654;23.370;2023-01-10T10:38:19;93542.50;;;7.87;80.12
36932;BME280;22847;42.654;23.370;2023-01-10T10:40:47;93424.13;;;7.10;80.59
36932;BME280;22847;42.654;23.370;2023-01-10T10:43:23;93359.44;;;6.66;80.12
36932;BME280;22847;42.654;23.370;2023-01-10T10:46:13;93555.56;;;8.11;79.82
36932;BME280;22847;42.654;23.370;2023-01-10T10:48:42;93566.25;;;8.08;80.05
36932;BME280;22847;42.654;23.370;2023-01-10T10:53:58;93570.13;;;8.04;80.12
36932;BME280;22847;42.654;23.370;2023-01-10T10:56:25;93552.06;;;8.28;79.64
36932;BME280;22847;42.654;23.370;2023-01-10T10:58:53;93442.31;;;7.52;79.47
36932;BME280;22847;42.654;23.370;2023-01-10T11:01:21;93568.13;;;8.24;79.66
36932;BME280;22847;42.654;23.370;2023-01-10T11:03:57;93568.88;;;7.48;83.15
36932;BME280;22847;42.654;23.370;2023-01-10T11:06:26;93554.34;;;7.55;82.45
36932;BME280;22847;42.654;23.370;2023-01-10T11:08:55;93547.09;;;8.01;81.63
36932;BME280;22847;42.654;23.370;2023-01-10T11:11:27;93368.06;;;7.01;81.18
36932;BME280;22847;42.654;23.370;2023-01-10T11:13:58;93567.50;;;7.96;81.72
36932;BME280;22847;42.654;23.370;2023-01-10T11:19:16;93537.75;;;8.24;80.94
36932;BME280;22847;42.654;23.370;2023-01-10T11:24:20;93526.09;;;8.28;80.26
36932;BME280;22847;42.654;23.370;2023-01-10T11:26:47;93512.19;;;7.95;80.12
36932;BME280;22847;42.654;23.370;2023-01-10T11:29:17;93539.84;;;8.21;80.36
36932;BME280;22847;42.654;23.370;2023-01-10T11:31:45;93467.53;;;7.84;80.98
36932;BME280;22847;42.654;23.370;2023-01-10T11:34:29;93537.44;;;8.19;81.24
36932;BME280;22847;42.654;23.370;2023-01-10T11:39:40;93506.06;;;8.04;81.09
36932;BME280;22847;42.654;23.370;2023-01-10T11:42:27;93556.97;;;8.31;80.74
36932;BME280;22847;42.654;23.370;2023-01-10T11:44:55;93502.53;;;8.14;79.94
36932;BME280;22847;42.654;23.370;2023-01-10T11:47:20;93553.91;;;8.44;79.86
36932;BME280;22847;42.654;23.370;2023-01-10T11:49:47;93540.44;;;8.40;80.05
36932;BME280;22847;42.654;23.370;2023-01-10T11:52:26;93429.53;;;7.58;79.12
36932;BME280;22847;42.654;23.370;2023-01-10T11:54:54;93528.03;;;7.84;80.77
36932;BME280;22847;42.654;23.370;2023-01-10T11:57:26;93516.91;;;8.00;80.55
36932;BME280;22847;42.654;23.370;2023-01-10T12:00:08;93302.94;;;6.96;80.11
36932;BME280;22847;42.654;23.370;2023-01-10T12:02:38;93517.97;;;8.23;80.45
36932;BME280;22847;42.654;23.370;2023-01-10T12:05:08;93545.59;;;8.32;80.41
36932;BME280;22847;42.654;23.370;2023-01-10T12:07:59;93363.63;;;7.35;80.30
36932;BME280;22847;42.654;23.370;2023-01-10T12:10:30;93544.13;;;8.30;80.31
36932;BME280;22847;42.654;23.370;2023-01-10T12:13:11;93518.59;;;8.25;80.85
36932;BME280;22847;42.654;23.370;2023-01-10T12:15:37;93344.41;;;7.04;80.64
36932;BME280;22847;42.654;23.370;2023-01-10T12:18:04;93330.63;;;7.03;80.55
36932;BME280;22847;42.654;23.370;2023-01-10T12:20:33;93546.19;;;8.18;80.16
36932;BME280;22847;42.654;23.370;2023-01-10T12:23:07;93494.13;;;8.28;79.40
36932;BME280;22847;42.654;23.370;2023-01-10T12:25:40;93374.97;;;7.34;80.27
36932;BME280;22847;42.654;23.370;2023-01-10T12:28:27;93490.75;;;7.85;81.51
36932;BME280;22847;42.654;23.370;2023-01-10T12:30:55;93545.44;;;8.34;80.78
36932;BME280;22847;42.654;23.370;2023-01-10T12:33:25;93547.97;;;8.26;80.56
36932;BME280;22847;42.654;23.370;2023-01-10T12:36:10;93314.09;;;6.96;80.32
36932;BME280;22847;42.654;23.370;2023-01-10T12:39:19;93526.63;;;8.32;80.59
36932;BME280;22847;42.654;23.370;2023-01-10T12:44:33;93333.13;;;7.21;79.66
36932;BME280;22847;42.654;23.370;2023-01-10T12:49:31;93506.41;;;8.18;80.85
36932;BME280;22847;42.654;23.370;2023-01-10T12:52:04;93525.78;;;8.31;81.22
36932;BME280;22847;42.654;23.370;2023-01-10T12:54:34;93528.72;;;8.36;80.66
36932;BME280;22847;42.654;23.370;2023-01-10T12:57:21;93526.75;;;8.30;80.67
36932;BME280;22847;42.654;23.370;2023-01-10T12:59:48;93531.00;;;8.39;80.73
36932;BME280;22847;42.654;23.370;2023-01-10T13:02:18;93572.97;;;8.27;81.85
36932;BME280;22847;42.654;23.370;2023-01-10T13:04:50;93533.97;;;8.11;81.87
36932;BME280;22847;42.654;23.370;2023-01-10T13:07:17;93567.34;;;8.31;81.02
36932;BME280;22847;42.654;23.370;2023-01-10T13:09:44;93347.38;;;7.17;80.73
36932;BME280;22847;42.654;23.370;2023-01-10T13:22:46;93505.84;;;8.32;80.36
36932;BME280;22847;42.654;23.370;2023-01-10T13:25:30;93544.34;;;8.61;79.99
36932;BME280;22847;42.654;23.370;2023-01-10T13:28:03;93533.28;;;8.42;80.09
36932;BME280;22847;42.654;23.370;2023-01-10T13:30:35;93541.72;;;8.36;81.24
36932;BME280;22847;42.654;23.370;2023-01-10T13:33:17;93506.91;;;8.21;81.21
36932;BME280;22847;42.654;23.370;2023-01-10T13:35:45;93529.66;;;8.27;80.24
36932;BME280;22847;42.654;23.370;2023-01-10T13:38:23;93569.34;;;8.45;81.00
36932;BME280;22847;42.654;23.370;2023-01-10T13:41:00;93349.69;;;7.20;81.32
36932;BME280;22847;42.654;23.370;2023-01-10T13:51:19;93548.84;;;8.42;81.41
36932;BME280;22847;42.654;23.370;2023-01-10T13:56:35;93398.31;;;7.34;82.50
36932;BME280;22847;42.654;23.370;2023-01-10T13:59:03;93560.88;;;8.35;82.32
36932;BME280;22847;42.654;23.370;2023-01-10T14:01:51;93553.00;;;8.19;82.59
36932;BME280;22847;42.654;23.370;2023-01-10T14:04:46;93387.69;;;6.78;85.19
36932;BME280;22847;42.654;23.370;2023-01-10T14:09:43;93525.06;;;8.13;82.57
36932;BME280;22847;42.654;23.370;2023-01-10T14:12:22;93345.06;;;6.98;83.07
36932;BME280;22847;42.654;23.370;2023-01-10T14:17:33;93407.00;;;7.59;81.94
36932;BME280;22847;42.654;23.370;2023-01-10T14:22:29;93353.41;;;7.26;81.38
36932;BME280;22847;42.654;23.370;2023-01-10T14:24:56;93565.44;;;8.41;81.98
36932;BME280;22847;42.654;23.370;2023-01-10T14:27:23;93608.66;;;8.25;82.34
36932;BME280;22847;42.654;23.370;2023-01-10T14:29:53;93559.56;;;8.31;82.57
36932;BME280;22847;42.654;23.370;2023-01-10T14:32:39;93591.16;;;8.27;82.41
36932;BME280;22847;42.654;23.370;2023-01-10T14:35:14;93551.19;;;8.20;81.66
36932;BME280;22847;42.654;23.370;2023-01-10T14:37:50;93551.16;;;8.45;81.46
36932;BME280;22847;42.654;23.370;2023-01-10T14:40:25;93363.59;;;7.19;81.17
36932;BME280;22847;42.654;23.370;2023-01-10T14:42:53;93542.41;;;8.13;81.81
36932;BME280;22847;42.654;23.370;2023-01-10T14:45:33;93590.72;;;8.31;81.90
36932;BME280;22847;42.654;23.370;2023-01-10T14:48:16;93569.63;;;8.42;81.30
36932;BME280;22847;42.654;23.370;2023-01-10T14:50:42;93456.25;;;7.51;81.91
36932;BME280;22847;42.654;23.370;2023-01-10T14:53:24;93582.59;;;8.34;81.05
36932;BME280;22847;42.654;23.370;2023-01-10T14:55:49;93379.78;;;7.21;80.00